sensor_id;sensor_type;location;lat;lon;timestamp;P1;durP1;ratioP1;P2;durP2;ratioP2
13493;SDS011;6819;50.886;4.332;2024-01-15T00:02:07;26.90;;;8.45;;
13493;SDS011;6819;50.886;4.332;2024-01-15T00:04:40;30.02;;;10.23;;
13493;SDS011;6819;50.886;4.332;2024-01-15T00:07:06;21.13;;;8.35;;
13493;SDS011;6819;50.886;4.332;2024-01-15T00:09:33;25.00;;;9.13;;
13493;SDS011;6819;50.886;4.332;2024-01-15T00:11:59;22.95;;;8.18;;
13493;SDS011;6819;50.886;4.332;2024-01-15T00:14:26;19.95;;;8.63;;
13493;SDS011;6819;50.886;4.332;2024-01-15T00:16:52;16.08;;;7.20;;
13493;SDS011;6819;50.886;4.332;2024-01-15T00:19:20;20.90;;;7.32;;
13493;SDS011;6819;50.886;4.332;2024-01-15T00:21:46;24.23;;;7.97;;
13493;SDS011;6819;50.886;4.332;2024-01-15T00:24:12;19.65;;;7.43;;
13493;SDS011;6819;50.886;4.332;2024-01-15T00:26:38;14.80;;;6.75;;
13493;SDS011;6819;50.886;4.332;2024-01-15T00:29:04;19.10;;;6.82;;
13493;SDS011;6819;50.886;4.332;2024-01-15T00:31:32;16.10;;;7.90;;
13493;SDS011;6819;50.886;4.332;2024-01-15T00:33:58;17.95;;;7.85;;
13493;SDS011;6819;50.886;4.332;2024-01-15T00:36:24;17.85;;;7.20;;
13493;SDS011;6819;50.886;4.332;2024-01-15T00:38:50;13.02;;;6.25;;
13493;SDS011;6819;50.886;4.332;2024-01-15T00:41:16;17.20;;;7.32;;
13493;SDS011;6819;50.886;4.332;2024-01-15T00:43:43;17.65;;;7.35;;
13493;SDS011;6819;50.886;4.332;2024-01-15T00:46:10;15.88;;;6.32;;
13493;SDS011;6819;50.886;4.332;2024-01-15T00:48:36;17.27;;;6.43;;
13493;SDS011;6819;50.886;4.332;2024-01-15T00:51:03;20.00;;;6.22;;
13493;SDS011;6819;50.886;4.332;2024-01-15T00:53:29;15.65;;;7.07;;
13493;SDS011;6819;50.886;4.332;2024-01-15T00:55:56;12.10;;;5.53;;
13493;SDS011;6819;50.886;4.332;2024-01-15T00:58:22;12.48;;;5.60;;
13493;SDS011;6819;50.886;4.332;2024-01-15T01:00:48;17.23;;;5.40;;
13493;SDS011;6819;50.886;4.332;2024-01-15T01:03:14;14.50;;;5.10;;
13493;SDS011;6819;50.886;4.332;2024-01-15T01:05:40;10.50;;;5.00;;
13493;SDS011;6819;50.886;4.332;2024-01-15T01:08:06;11.25;;;5.05;;
13493;SDS011;6819;50.886;4.332;2024-01-15T01:10:32;9.88;;;4.68;;
13493;SDS011;6819;50.886;4.332;2024-01-15T01:12:58;13.00;;;5.18;;
13493;SDS011;6819;50.886;4.332;2024-01-15T01:15:24;8.02;;;3.88;;
13493;SDS011;6819;50.886;4.332;2024-01-15T01:17:50;10.73;;;4.63;;
13493;SDS011;6819;50.886;4.332;2024-01-15T01:20:16;7.82;;;4.63;;
13493;SDS011;6819;50.886;4.332;2024-01-15T01:22:42;11.38;;;4.55;;
13493;SDS011;6819;50.886;4.332;2024-01-15T01:25:08;9.45;;;4.50;;
13493;SDS011;6819;50.886;4.332;2024-01-15T01:27:35;8.85;;;3.97;;
13493;SDS011;6819;50.886;4.332;2024-01-15T01:30:01;9.48;;;4.40;;
13493;SDS011;6819;50.886;4.332;2024-01-15T01:32:27;5.82;;;3.55;;
13493;SDS011;6819;50.886;4.332;2024-01-15T01:34:53;5.90;;;3.17;;
13493;SDS011;6819;50.886;4.332;2024-01-15T01:37:19;6.90;;;3.38;;
13493;SDS011;6819;50.886;4.332;2024-01-15T01:39:45;8.70;;;3.92;;
13493;SDS011;6819;50.886;4.332;2024-01-15T01:42:11;7.30;;;3.47;;
13493;SDS011;6819;50.886;4.332;2024-01-15T01:44:38;4.20;;;2.72;;
13493;SDS011;6819;50.886;4.332;2024-01-15T01:47:04;5.72;;;3.13;;
13493;SDS011;6819;50.886;4.332;2024-01-15T01:49:30;7.95;;;3.40;;
13493;SDS011;6819;50.886;4.332;2024-01-15T01:51:57;3.88;;;2.50;;
13493;SDS011;6819;50.886;4.332;2024-01-15T01:54:24;5.78;;;3.00;;
13493;SDS011;6819;50.886;4.332;2024-01-15T01:56:50;5.65;;;2.90;;
13493;SDS011;6819;50.886;4.332;2024-01-15T01:59:16;5.07;;;2.63;;
13493;SDS011;6819;50.886;4.332;2024-01-15T02:01:42;7.35;;;2.92;;
13493;SDS011;6819;50.886;4.332;2024-01-15T02:04:10;5.15;;;2.47;;
13493;SDS011;6819;50.886;4.332;2024-01-15T02:06:36;11.50;;;2.75;;
13493;SDS011;6819;50.886;4.332;2024-01-15T02:09:03;3.35;;;2.35;;
13493;SDS011;6819;50.886;4.332;2024-01-15T02:11:30;4.97;;;2.70;;
13493;SDS011;6819;50.886;4.332;2024-01-15T02:13:56;4.78;;;2.80;;
13493;SDS011;6819;50.886;4.332;2024-01-15T02:16:22;3.70;;;2.35;;
13493;SDS011;6819;50.886;4.332;2024-01-15T02:18:48;4.55;;;2.35;;
13493;SDS011;6819;50.886;4.332;2024-01-15T02:21:14;6.80;;;2.70;;
13493;SDS011;6819;50.886;4.332;2024-01-15T02:23:40;5.88;;;2.80;;
13493;SDS011;6819;50.886;4.332;2024-01-15T02:26:06;7.47;;;2.67;;
13493;SDS011;6819;50.886;4.332;2024-01-15T02:28:33;6.80;;;2.20;;
13493;SDS011;6819;50.886;4.332;2024-01-15T02:30:59;5.95;;;2.28;;
13493;SDS011;6819;50.886;4.332;2024-01-15T02:33:26;6.65;;;2.30;;
13493;SDS011;6819;50.886;4.332;2024-01-15T02:35:52;3.08;;;2.17;;
13493;SDS011;6819;50.886;4.332;2024-01-15T02:38:18;3.50;;;2.05;;
13493;SDS011;6819;50.886;4.332;2024-01-15T02:40:44;5.00;;;2.17;;
13493;SDS011;6819;50.886;4.332;2024-01-15T02:43:11;5.45;;;2.30;;
13493;SDS011;6819;50.886;4.332;2024-01-15T02:45:38;5.97;;;2.20;;
13493;SDS011;6819;50.886;4.332;2024-01-15T02:48:05;6.88;;;1.80;;
13493;SDS011;6819;50.886;4.332;2024-01-15T02:50:31;6.13;;;2.08;;
13493;SDS011;6819;50.886;4.332;2024-01-15T02:52:57;4.10;;;2.20;;
13493;SDS011;6819;50.886;4.332;2024-01-15T02:55:23;3.65;;;2.20;;
13493;SDS011;6819;50.886;4.332;2024-01-15T02:57:49;8.48;;;2.47;;
13493;SDS011;6819;50.886;4.332;2024-01-15T03:00:15;3.95;;;2.08;;
13493;SDS011;6819;50.886;4.332;2024-01-15T03:02:43;7.53;;;2.40;;
13493;SDS011;6819;50.886;4.332;2024-01-15T03:05:10;4.88;;;2.10;;
13493;SDS011;6819;50.886;4.332;2024-01-15T03:07:36;5.68;;;2.40;;
13493;SDS011;6819;50.886;4.332;2024-01-15T03:10:02;4.70;;;2.33;;
13493;SDS011;6819;50.886;4.332;2024-01-15T03:12:28;7.30;;;2.42;;
13493;SDS011;6819;50.886;4.332;2024-01-15T03:14:54;6.43;;;2.28;;
13493;SDS011;6819;50.886;4.332;2024-01-15T03:17:20;7.40;;;2.85;;
13493;SDS011;6819;50.886;4.332;2024-01-15T03:19:46;11.45;;;2.92;;
13493;SDS011;6819;50.886;4.332;2024-01-15T03:22:14;4.65;;;2.67;;
13493;SDS011;6819;50.886;4.332;2024-01-15T03:24:40;8.65;;;2.78;;
13493;SDS011;6819;50.886;4.332;2024-01-15T03:27:06;4.28;;;2.72;;
13493;SDS011;6819;50.886;4.332;2024-01-15T03:29:32;7.72;;;3.60;;
13493;SDS011;6819;50.886;4.332;2024-01-15T03:31:58;6.40;;;3.30;;
13493;SDS011;6819;50.886;4.332;2024-01-15T03:34:24;13.93;;;4.30;;
13493;SDS011;6819;50.886;4.332;2024-01-15T03:36:50;6.78;;;3.78;;
13493;SDS011;6819;50.886;4.332;2024-01-15T03:39:16;8.63;;;4.15;;
13493;SDS011;6819;50.886;4.332;2024-01-15T03:41:42;12.23;;;4.28;;
13493;SDS011;6819;50.886;4.332;2024-01-15T03:44:08;10.05;;;4.45;;
13493;SDS011;6819;50.886;4.332;2024-01-15T03:46:34;7.65;;;4.43;;
13493;SDS011;6819;50.886;4.332;2024-01-15T03:49:00;7.25;;;4.18;;
13493;SDS011;6819;50.886;4.332;2024-01-15T03:51:27;9.50;;;4.82;;
13493;SDS011;6819;50.886;4.332;2024-01-15T03:53:53;14.43;;;4.97;;
13493;SDS011;6819;50.886;4.332;2024-01-15T03:56:19;8.50;;;4.78;;
13493;SDS011;6819;50.886;4.332;2024-01-15T03:58:45;9.45;;;5.05;;
13493;SDS011;6819;50.886;4.332;2024-01-15T04:01:11;7.47;;;4.38;;
13493;SDS011;6819;50.886;4.332;2024-01-15T04:03:37;12.60;;;4.60;;
13493;SDS011;6819;50.886;4.332;2024-01-15T04:06:04;12.32;;;4.20;;
13493;SDS011;6819;50.886;4.332;2024-01-15T04:08:30;14.48;;;5.10;;
13493;SDS011;6819;50.886;4.332;2024-01-15T04:10:56;11.52;;;5.20;;
13493;SDS011;6819;50.886;4.332;2024-01-15T04:13:22;10.15;;;5.72;;
13493;SDS011;6819;50.886;4.332;2024-01-15T04:15:48;13.18;;;5.32;;
13493;SDS011;6819;50.886;4.332;2024-01-15T04:18:15;8.75;;;5.20;;
13493;SDS011;6819;50.886;4.332;2024-01-15T04:20:42;10.93;;;4.90;;
13493;SDS011;6819;50.886;4.332;2024-01-15T04:23:08;11.10;;;5.55;;
13493;SDS011;6819;50.886;4.332;2024-01-15T04:25:34;18.25;;;7.03;;
13493;SDS011;6819;50.886;4.332;2024-01-15T04:28:00;17.63;;;5.75;;
13493;SDS011;6819;50.886;4.332;2024-01-15T04:30:26;10.57;;;5.68;;
13493;SDS011;6819;50.886;4.332;2024-01-15T04:32:52;12.25;;;5.43;;
13493;SDS011;6819;50.886;4.332;2024-01-15T04:35:18;10.32;;;5.13;;
13493;SDS011;6819;50.886;4.332;2024-01-15T04:37:44;10.63;;;5.43;;
13493;SDS011;6819;50.886;4.332;2024-01-15T04:40:10;10.07;;;5.57;;
13493;SDS011;6819;50.886;4.332;2024-01-15T04:42:36;12.73;;;5.30;;
13493;SDS011;6819;50.886;4.332;2024-01-15T04:45:03;10.68;;;5.68;;
13493;SDS011;6819;50.886;4.332;2024-01-15T04:47:29;8.02;;;4.38;;
13493;SDS011;6819;50.886;4.332;2024-01-15T04:49:55;12.27;;;5.40;;
13493;SDS011;6819;50.886;4.332;2024-01-15T04:52:21;10.48;;;4.78;;
13493;SDS011;6819;50.886;4.332;2024-01-15T04:54:47;8.30;;;3.78;;
13493;SDS011;6819;50.886;4.332;2024-01-15T04:57:13;8.00;;;4.55;;
13493;SDS011;6819;50.886;4.332;2024-01-15T04:59:40;10.70;;;4.40;;
13493;SDS011;6819;50.886;4.332;2024-01-15T05:02:06;9.45;;;3.00;;
13493;SDS011;6819;50.886;4.332;2024-01-15T05:04:32;8.25;;;3.33;;
13493;SDS011;6819;50.886;4.332;2024-01-15T05:06:58;7.10;;;2.58;;
13493;SDS011;6819;50.886;4.332;2024-01-15T05:09:24;9.07;;;3.40;;
13493;SDS011;6819;50.886;4.332;2024-01-15T05:11:50;6.90;;;3.13;;
13493;SDS011;6819;50.886;4.332;2024-01-15T05:14:16;5.50;;;2.17;;
13493;SDS011;6819;50.886;4.332;2024-01-15T05:16:48;3.65;;;2.35;;
13493;SDS011;6819;50.886;4.332;2024-01-15T05:19:15;3.55;;;1.52;;
13493;SDS011;6819;50.886;4.332;2024-01-15T05:21:41;6.03;;;2.17;;
13493;SDS011;6819;50.886;4.332;2024-01-15T05:24:07;4.03;;;1.70;;
13493;SDS011;6819;50.886;4.332;2024-01-15T05:26:34;3.10;;;1.80;;
13493;SDS011;6819;50.886;4.332;2024-01-15T05:29:00;2.55;;;1.65;;
13493;SDS011;6819;50.886;4.332;2024-01-15T05:31:26;5.18;;;1.90;;
13493;SDS011;6819;50.886;4.332;2024-01-15T05:33:52;3.42;;;1.83;;
13493;SDS011;6819;50.886;4.332;2024-01-15T05:36:18;2.58;;;1.40;;
13493;SDS011;6819;50.886;4.332;2024-01-15T05:38:44;6.45;;;1.55;;
13493;SDS011;6819;50.886;4.332;2024-01-15T05:41:10;2.88;;;1.88;;
13493;SDS011;6819;50.886;4.332;2024-01-15T05:43:36;2.53;;;1.40;;
13493;SDS011;6819;50.886;4.332;2024-01-15T05:46:02;3.70;;;1.17;;
13493;SDS011;6819;50.886;4.332;2024-01-15T05:48:28;7.85;;;1.90;;
13493;SDS011;6819;50.886;4.332;2024-01-15T05:50:54;8.82;;;1.70;;
13493;SDS011;6819;50.886;4.332;2024-01-15T05:53:20;2.70;;;1.30;;
13493;SDS011;6819;50.886;4.332;2024-01-15T05:55:46;5.13;;;1.30;;
13493;SDS011;6819;50.886;4.332;2024-01-15T05:58:12;3.75;;;1.08;;
13493;SDS011;6819;50.886;4.332;2024-01-15T06:00:38;6.45;;;1.45;;
13493;SDS011;6819;50.886;4.332;2024-01-15T06:03:04;2.28;;;1.10;;
13493;SDS011;6819;50.886;4.332;2024-01-15T06:05:30;4.10;;;1.20;;
13493;SDS011;6819;50.886;4.332;2024-01-15T06:07:56;3.05;;;1.13;;
13493;SDS011;6819;50.886;4.332;2024-01-15T06:10:22;2.90;;;1.50;;
13493;SDS011;6819;50.886;4.332;2024-01-15T06:12:49;2.40;;;0.82;;
13493;SDS011;6819;50.886;4.332;2024-01-15T06:15:15;1.13;;;0.90;;
13493;SDS011;6819;50.886;4.332;2024-01-15T06:17:41;1.13;;;0.82;;
13493;SDS011;6819;50.886;4.332;2024-01-15T06:20:07;2.97;;;1.05;;
13493;SDS011;6819;50.886;4.332;2024-01-15T06:22:34;4.40;;;1.10;;
13493;SDS011;6819;50.886;4.332;2024-01-15T06:25:02;7.00;;;1.27;;
13493;SDS011;6819;50.886;4.332;2024-01-15T06:27:28;2.03;;;1.02;;
13493;SDS011;6819;50.886;4.332;2024-01-15T06:29:54;7.03;;;0.93;;
13493;SDS011;6819;50.886;4.332;2024-01-15T06:32:21;2.97;;;0.95;;
13493;SDS011;6819;50.886;4.332;2024-01-15T06:34:47;2.50;;;1.10;;
13493;SDS011;6819;50.886;4.332;2024-01-15T06:37:13;5.75;;;1.40;;
13493;SDS011;6819;50.886;4.332;2024-01-15T06:39:39;4.70;;;1.10;;
13493;SDS011;6819;50.886;4.332;2024-01-15T06:42:05;7.22;;;1.35;;
13493;SDS011;6819;50.886;4.332;2024-01-15T06:44:31;2.78;;;1.77;;
13493;SDS011;6819;50.886;4.332;2024-01-15T06:46:57;2.90;;;1.27;;
13493;SDS011;6819;50.886;4.332;2024-01-15T06:49:27;5.07;;;1.38;;
13493;SDS011;6819;50.886;4.332;2024-01-15T06:51:54;2.85;;;1.17;;
13493;SDS011;6819;50.886;4.332;2024-01-15T06:54:20;14.13;;;1.80;;
13493;SDS011;6819;50.886;4.332;2024-01-15T06:56:46;4.07;;;1.65;;
13493;SDS011;6819;50.886;4.332;2024-01-15T06:59:12;2.85;;;1.50;;
13493;SDS011;6819;50.886;4.332;2024-01-15T07:01:38;2.05;;;1.38;;
13493;SDS011;6819;50.886;4.332;2024-01-15T07:04:04;4.97;;;1.63;;
13493;SDS011;6819;50.886;4.332;2024-01-15T07:06:30;6.00;;;1.45;;
13493;SDS011;6819;50.886;4.332;2024-01-15T07:08:56;5.32;;;1.60;;
13493;SDS011;6819;50.886;4.332;2024-01-15T07:11:22;6.45;;;1.77;;
13493;SDS011;6819;50.886;4.332;2024-01-15T07:13:48;6.50;;;1.38;;
13493;SDS011;6819;50.886;4.332;2024-01-15T07:16:14;10.25;;;1.55;;
13493;SDS011;6819;50.886;4.332;2024-01-15T07:18:40;7.55;;;1.55;;
13493;SDS011;6819;50.886;4.332;2024-01-15T07:21:06;2.30;;;1.45;;
13493;SDS011;6819;50.886;4.332;2024-01-15T07:23:33;10.95;;;1.63;;
13493;SDS011;6819;50.886;4.332;2024-01-15T07:25:59;2.28;;;1.45;;
13493;SDS011;6819;50.886;4.332;2024-01-15T07:28:25;1.77;;;1.17;;
13493;SDS011;6819;50.886;4.332;2024-01-15T07:30:51;1.95;;;1.23;;
13493;SDS011;6819;50.886;4.332;2024-01-15T07:33:17;2.78;;;1.33;;
13493;SDS011;6819;50.886;4.332;2024-01-15T07:35:43;4.28;;;1.58;;
13493;SDS011;6819;50.886;4.332;2024-01-15T07:38:09;4.30;;;1.40;;
13493;SDS011;6819;50.886;4.332;2024-01-15T07:40:36;2.50;;;1.55;;
13493;SDS011;6819;50.886;4.332;2024-01-15T07:43:02;4.65;;;1.73;;
13493;SDS011;6819;50.886;4.332;2024-01-15T07:45:29;10.82;;;2.30;;
13493;SDS011;6819;50.886;4.332;2024-01-15T07:47:56;4.57;;;1.85;;
13493;SDS011;6819;50.886;4.332;2024-01-15T07:50:22;4.78;;;1.98;;
13493;SDS011;6819;50.886;4.332;2024-01-15T07:52:48;7.65;;;2.40;;
13493;SDS011;6819;50.886;4.332;2024-01-15T07:55:14;5.55;;;2.05;;
13493;SDS011;6819;50.886;4.332;2024-01-15T07:57:40;6.63;;;2.92;;
13493;SDS011;6819;50.886;4.332;2024-01-15T08:00:06;4.18;;;2.03;;
13493;SDS011;6819;50.886;4.332;2024-01-15T08:02:34;5.18;;;2.13;;
13493;SDS011;6819;50.886;4.332;2024-01-15T08:05:00;6.82;;;2.40;;
13493;SDS011;6819;50.886;4.332;2024-01-15T08:07:26;3.35;;;2.42;;
13493;SDS011;6819;50.886;4.332;2024-01-15T08:09:52;9.98;;;2.70;;
13493;SDS011;6819;50.886;4.332;2024-01-15T08:12:18;7.78;;;2.55;;
13493;SDS011;6819;50.886;4.332;2024-01-15T08:14:44;6.97;;;2.70;;
13493;SDS011;6819;50.886;4.332;2024-01-15T08:17:10;6.20;;;2.10;;
13493;SDS011;6819;50.886;4.332;2024-01-15T08:19:37;4.03;;;2.30;;
13493;SDS011;6819;50.886;4.332;2024-01-15T08:22:06;5.60;;;2.38;;
13493;SDS011;6819;50.886;4.332;2024-01-15T08:24:32;4.63;;;2.40;;
13493;SDS011;6819;50.886;4.332;2024-01-15T08:26:58;10.82;;;2.92;;
13493;SDS011;6819;50.886;4.332;2024-01-15T08:29:24;5.82;;;2.67;;
13493;SDS011;6819;50.886;4.332;2024-01-15T08:31:50;10.57;;;2.53;;
13493;SDS011;6819;50.886;4.332;2024-01-15T08:34:16;6.03;;;2.33;;
13493;SDS011;6819;50.886;4.332;2024-01-15T08:36:42;9.85;;;2.42;;
13493;SDS011;6819;50.886;4.332;2024-01-15T08:39:08;8.48;;;2.28;;
13493;SDS011;6819;50.886;4.332;2024-01-15T08:41:34;6.50;;;2.22;;
13493;SDS011;6819;50.886;4.332;2024-01-15T08:44:00;4.38;;;2.20;;
13493;SDS011;6819;50.886;4.332;2024-01-15T08:46:27;3.47;;;1.77;;
13493;SDS011;6819;50.886;4.332;2024-01-15T08:48:53;9.20;;;1.85;;
13493;SDS011;6819;50.886;4.332;2024-01-15T08:51:20;6.90;;;1.77;;
13493;SDS011;6819;50.886;4.332;2024-01-15T08:53:46;11.82;;;2.20;;
13493;SDS011;6819;50.886;4.332;2024-01-15T08:56:12;6.75;;;1.75;;
13493;SDS011;6819;50.886;4.332;2024-01-15T08:58:38;7.22;;;1.80;;
13493;SDS011;6819;50.886;4.332;2024-01-15T09:01:04;4.15;;;1.15;;
13493;SDS011;6819;50.886;4.332;2024-01-15T09:03:30;2.38;;;1.27;;
13493;SDS011;6819;50.886;4.332;2024-01-15T09:05:57;9.52;;;1.92;;
13493;SDS011;6819;50.886;4.332;2024-01-15T09:08:23;5.72;;;1.65;;
13493;SDS011;6819;50.886;4.332;2024-01-15T09:10:49;5.25;;;1.40;;
13493;SDS011;6819;50.886;4.332;2024-01-15T09:13:16;7.38;;;1.50;;
13493;SDS011;6819;50.886;4.332;2024-01-15T09:15:42;4.03;;;1.30;;
13493;SDS011;6819;50.886;4.332;2024-01-15T09:18:08;8.10;;;1.73;;
13493;SDS011;6819;50.886;4.332;2024-01-15T09:20:35;3.78;;;1.50;;
13493;SDS011;6819;50.886;4.332;2024-01-15T09:23:01;4.10;;;1.27;;
13493;SDS011;6819;50.886;4.332;2024-01-15T09:25:27;5.38;;;1.48;;
13493;SDS011;6819;50.886;4.332;2024-01-15T09:27:54;6.75;;;1.40;;
13493;SDS011;6819;50.886;4.332;2024-01-15T09:30:20;3.83;;;1.25;;
13493;SDS011;6819;50.886;4.332;2024-01-15T09:32:46;3.75;;;1.52;;
13493;SDS011;6819;50.886;4.332;2024-01-15T09:35:12;11.50;;;1.63;;
13493;SDS011;6819;50.886;4.332;2024-01-15T09:37:39;6.35;;;1.40;;
13493;SDS011;6819;50.886;4.332;2024-01-15T09:40:05;6.43;;;1.75;;
13493;SDS011;6819;50.886;4.332;2024-01-15T09:42:31;6.13;;;1.30;;
13493;SDS011;6819;50.886;4.332;2024-01-15T09:44:58;5.82;;;1.70;;
13493;SDS011;6819;50.886;4.332;2024-01-15T09:47:24;4.32;;;1.48;;
13493;SDS011;6819;50.886;4.332;2024-01-15T09:49:50;3.88;;;1.35;;
13493;SDS011;6819;50.886;4.332;2024-01-15T09:52:16;5.18;;;1.40;;
13493;SDS011;6819;50.886;4.332;2024-01-15T09:54:45;5.60;;;1.58;;
13493;SDS011;6819;50.886;4.332;2024-01-15T09:57:12;9.02;;;1.40;;
13493;SDS011;6819;50.886;4.332;2024-01-15T09:59:38;10.35;;;1.48;;
13493;SDS011;6819;50.886;4.332;2024-01-15T10:02:05;6.95;;;1.20;;
13493;SDS011;6819;50.886;4.332;2024-01-15T10:04:33;7.20;;;1.75;;
13493;SDS011;6819;50.886;4.332;2024-01-15T10:07:00;7.43;;;1.40;;
13493;SDS011;6819;50.886;4.332;2024-01-15T10:09:26;8.45;;;1.50;;
13493;SDS011;6819;50.886;4.332;2024-01-15T10:11:53;9.57;;;1.52;;
13493;SDS011;6819;50.886;4.332;2024-01-15T10:14:19;6.20;;;1.35;;
13493;SDS011;6819;50.886;4.332;2024-01-15T10:16:45;7.03;;;1.60;;
13493;SDS011;6819;50.886;4.332;2024-01-15T10:19:11;2.47;;;1.00;;
13493;SDS011;6819;50.886;4.332;2024-01-15T10:21:37;4.88;;;1.38;;
13493;SDS011;6819;50.886;4.332;2024-01-15T10:24:04;3.88;;;1.30;;
13493;SDS011;6819;50.886;4.332;2024-01-15T10:26:30;5.32;;;1.60;;
13493;SDS011;6819;50.886;4.332;2024-01-15T10:28:58;5.20;;;1.70;;
13493;SDS011;6819;50.886;4.332;2024-01-15T10:31:25;3.80;;;1.63;;
13493;SDS011;6819;50.886;4.332;2024-01-15T10:33:52;6.38;;;1.20;;
13493;SDS011;6819;50.886;4.332;2024-01-15T10:36:18;4.15;;;1.30;;
13493;SDS011;6819;50.886;4.332;2024-01-15T10:38:44;3.80;;;1.38;;
13493;SDS011;6819;50.886;4.332;2024-01-15T10:41:10;5.68;;;1.33;;
13493;SDS011;6819;50.886;4.332;2024-01-15T10:43:36;7.10;;;1.42;;
13493;SDS011;6819;50.886;4.332;2024-01-15T10:46:03;5.82;;;1.55;;
13493;SDS011;6819;50.886;4.332;2024-01-15T10:48:29;3.58;;;1.00;;
13493;SDS011;6819;50.886;4.332;2024-01-15T10:51:00;3.80;;;1.38;;
13493;SDS011;6819;50.886;4.332;2024-01-15T10:53:28;8.70;;;1.60;;
13493;SDS011;6819;50.886;4.332;2024-01-15T10:55:56;5.68;;;1.23;;
13493;SDS011;6819;50.886;4.332;2024-01-15T10:58:23;10.85;;;1.27;;
13493;SDS011;6819;50.886;4.332;2024-01-15T11:00:49;9.00;;;1.70;;
13493;SDS011;6819;50.886;4.332;2024-01-15T11:03:16;7.07;;;1.30;;
13493;SDS011;6819;50.886;4.332;2024-01-15T11:05:42;7.40;;;1.85;;
13493;SDS011;6819;50.886;4.332;2024-01-15T11:08:09;5.70;;;1.50;;
13493;SDS011;6819;50.886;4.332;2024-01-15T11:10:43;4.35;;;1.55;;
13493;SDS011;6819;50.886;4.332;2024-01-15T11:13:15;9.55;;;1.35;;
13493;SDS011;6819;50.886;4.332;2024-01-15T11:18:22;2.83;;;1.00;;
13493;SDS011;6819;50.886;4.332;2024-01-15T11:26:26;7.85;;;1.25;;
13493;SDS011;6819;50.886;4.332;2024-01-15T11:28:54;5.35;;;1.08;;
13493;SDS011;6819;50.886;4.332;2024-01-15T11:31:25;2.65;;;1.30;;
13493;SDS011;6819;50.886;4.332;2024-01-15T11:33:51;5.93;;;1.10;;
13493;SDS011;6819;50.886;4.332;2024-01-15T11:36:17;3.10;;;1.40;;
13493;SDS011;6819;50.886;4.332;2024-01-15T11:38:43;2.70;;;0.80;;
13493;SDS011;6819;50.886;4.332;2024-01-15T11:41:14;7.57;;;1.40;;
13493;SDS011;6819;50.886;4.332;2024-01-15T11:43:41;3.70;;;0.93;;
13493;SDS011;6819;50.886;4.332;2024-01-15T11:46:10;2.90;;;1.35;;
13493;SDS011;6819;50.886;4.332;2024-01-15T11:48:44;2.97;;;0.70;;
13493;SDS011;6819;50.886;4.332;2024-01-15T11:51:11;3.95;;;1.40;;
13493;SDS011;6819;50.886;4.332;2024-01-15T11:53:43;2.47;;;1.05;;
13493;SDS011;6819;50.886;4.332;2024-01-15T11:56:19;4.35;;;0.98;;
13493;SDS011;6819;50.886;4.332;2024-01-15T11:58:48;6.05;;;1.15;;
13493;SDS011;6819;50.886;4.332;2024-01-15T12:01:15;4.93;;;0.80;;
13493;SDS011;6819;50.886;4.332;2024-01-15T12:03:42;4.13;;;1.08;;
13493;SDS011;6819;50.886;4.332;2024-01-15T12:06:08;3.20;;;1.20;;
13493;SDS011;6819;50.886;4.332;2024-01-15T12:08:35;3.70;;;1.30;;
13493;SDS011;6819;50.886;4.332;2024-01-15T12:11:04;2.97;;;1.10;;
13493;SDS011;6819;50.886;4.332;2024-01-15T12:13:32;6.40;;;1.45;;
13493;SDS011;6819;50.886;4.332;2024-01-15T12:15:59;4.45;;;1.30;;
13493;SDS011;6819;50.886;4.332;2024-01-15T12:18:29;3.42;;;1.02;;
13493;SDS011;6819;50.886;4.332;2024-01-15T12:20:55;7.72;;;1.30;;
13493;SDS011;6819;50.886;4.332;2024-01-15T12:23:21;10.13;;;1.40;;
13493;SDS011;6819;50.886;4.332;2024-01-15T12:25:47;7.75;;;1.20;;
13493;SDS011;6819;50.886;4.332;2024-01-15T12:28:13;5.60;;;1.33;;
13493;SDS011;6819;50.886;4.332;2024-01-15T12:30:40;6.93;;;1.40;;
13493;SDS011;6819;50.886;4.332;2024-01-15T12:33:07;8.23;;;1.40;;
13493;SDS011;6819;50.886;4.332;2024-01-15T12:35:34;6.15;;;1.63;;
13493;SDS011;6819;50.886;4.332;2024-01-15T12:38:00;5.60;;;1.27;;
13493;SDS011;6819;50.886;4.332;2024-01-15T12:40:30;5.30;;;1.25;;
13493;SDS011;6819;50.886;4.332;2024-01-15T12:42:57;5.35;;;1.25;;
13493;SDS011;6819;50.886;4.332;2024-01-15T12:45:23;8.13;;;1.00;;
13493;SDS011;6819;50.886;4.332;2024-01-15T12:47:49;1.98;;;0.80;;
13493;SDS011;6819;50.886;4.332;2024-01-15T12:50:16;8.05;;;1.17;;
13493;SDS011;6819;50.886;4.332;2024-01-15T12:52:42;4.32;;;1.38;;
13493;SDS011;6819;50.886;4.332;2024-01-15T12:55:09;10.60;;;1.20;;
13493;SDS011;6819;50.886;4.332;2024-01-15T12:57:35;3.92;;;1.30;;
13493;SDS011;6819;50.886;4.332;2024-01-15T13:00:02;2.65;;;0.90;;
13493;SDS011;6819;50.886;4.332;2024-01-15T13:02:32;4.43;;;0.85;;
13493;SDS011;6819;50.886;4.332;2024-01-15T13:04:59;3.03;;;0.85;;
13493;SDS011;6819;50.886;4.332;2024-01-15T13:07:25;7.47;;;1.52;;
13493;SDS011;6819;50.886;4.332;2024-01-15T13:09:52;8.15;;;1.25;;
13493;SDS011;6819;50.886;4.332;2024-01-15T13:12:19;4.18;;;0.90;;
13493;SDS011;6819;50.886;4.332;2024-01-15T13:14:45;7.05;;;1.10;;
13493;SDS011;6819;50.886;4.332;2024-01-15T13:17:12;3.58;;;1.10;;
13493;SDS011;6819;50.886;4.332;2024-01-15T13:19:39;4.57;;;1.20;;
13493;SDS011;6819;50.886;4.332;2024-01-15T13:22:05;5.53;;;2.22;;
13493;SDS011;6819;50.886;4.332;2024-01-15T13:24:33;4.28;;;1.30;;
13493;SDS011;6819;50.886;4.332;2024-01-15T13:26:59;3.95;;;1.17;;
13493;SDS011;6819;50.886;4.332;2024-01-15T13:29:25;4.57;;;1.33;;
13493;SDS011;6819;50.886;4.332;2024-01-15T13:31:51;7.03;;;1.45;;
13493;SDS011;6819;50.886;4.332;2024-01-15T13:34:17;5.38;;;1.35;;
13493;SDS011;6819;50.886;4.332;2024-01-15T13:36:43;5.53;;;1.17;;
13493;SDS011;6819;50.886;4.332;2024-01-15T13:39:09;4.22;;;1.55;;
13493;SDS011;6819;50.886;4.332;2024-01-15T13:41:35;10.85;;;1.40;;
13493;SDS011;6819;50.886;4.332;2024-01-15T13:44:02;8.43;;;1.35;;
13493;SDS011;6819;50.886;4.332;2024-01-15T13:46:28;7.97;;;1.20;;
13493;SDS011;6819;50.886;4.332;2024-01-15T13:48:54;9.57;;;1.42;;
13493;SDS011;6819;50.886;4.332;2024-01-15T13:51:23;4.07;;;1.10;;
13493;SDS011;6819;50.886;4.332;2024-01-15T13:53:49;6.95;;;1.33;;
13493;SDS011;6819;50.886;4.332;2024-01-15T13:56:16;9.27;;;1.38;;
13493;SDS011;6819;50.886;4.332;2024-01-15T13:58:42;2.15;;;1.05;;
13493;SDS011;6819;50.886;4.332;2024-01-15T14:01:08;5.45;;;1.25;;
13493;SDS011;6819;50.886;4.332;2024-01-15T14:03:35;1.58;;;1.08;;
13493;SDS011;6819;50.886;4.332;2024-01-15T14:06:01;4.88;;;1.23;;
13493;SDS011;6819;50.886;4.332;2024-01-15T14:08:28;6.25;;;1.42;;
13493;SDS011;6819;50.886;4.332;2024-01-15T14:10:55;3.20;;;1.27;;
13493;SDS011;6819;50.886;4.332;2024-01-15T14:13:22;5.32;;;1.30;;
13493;SDS011;6819;50.886;4.332;2024-01-15T14:15:48;5.45;;;1.20;;
13493;SDS011;6819;50.886;4.332;2024-01-15T14:18:15;9.45;;;1.42;;
13493;SDS011;6819;50.886;4.332;2024-01-15T14:20:41;2.08;;;0.88;;
13493;SDS011;6819;50.886;4.332;2024-01-15T14:23:08;6.88;;;1.88;;
13493;SDS011;6819;50.886;4.332;2024-01-15T14:25:34;3.50;;;1.10;;
13493;SDS011;6819;50.886;4.332;2024-01-15T14:28:00;3.08;;;1.48;;
13493;SDS011;6819;50.886;4.332;2024-01-15T14:30:26;3.90;;;1.00;;
13493;SDS011;6819;50.886;4.332;2024-01-15T14:32:52;4.80;;;1.00;;
13493;SDS011;6819;50.886;4.332;2024-01-15T14:35:18;4.63;;;1.48;;
13493;SDS011;6819;50.886;4.332;2024-01-15T14:37:44;2.47;;;0.63;;
13493;SDS011;6819;50.886;4.332;2024-01-15T14:40:10;0.70;;;0.70;;
13493;SDS011;6819;50.886;4.332;2024-01-15T14:42:37;1.23;;;0.70;;
13493;SDS011;6819;50.886;4.332;2024-01-15T14:45:04;2.85;;;0.85;;
13493;SDS011;6819;50.886;4.332;2024-01-15T14:47:36;3.38;;;1.15;;
13493;SDS011;6819;50.886;4.332;2024-01-15T14:50:02;2.80;;;0.90;;
13493;SDS011;6819;50.886;4.332;2024-01-15T14:52:28;2.60;;;0.85;;
13493;SDS011;6819;50.886;4.332;2024-01-15T14:54:54;2.65;;;0.90;;
13493;SDS011;6819;50.886;4.332;2024-01-15T14:57:20;1.15;;;0.68;;
13493;SDS011;6819;50.886;4.332;2024-01-15T14:59:46;1.23;;;0.90;;
13493;SDS011;6819;50.886;4.332;2024-01-15T15:02:12;3.70;;;0.90;;